createdAt,value
2023-07-17T00:00:12.266Z,91.30
2023-07-17T00:02:41.055Z,91.30
2023-07-17T00:05:11.025Z,91.40
2023-07-17T00:07:40.321Z,91.30
2023-07-17T00:10:10.940Z,91.30
2023-07-17T00:12:39.708Z,91.30
2023-07-17T00:15:08.713Z,91.30
2023-07-17T00:17:37.621Z,91.30
2023-07-17T00:20:07.847Z,91.30
2023-07-17T00:22:36.634Z,91.30
2023-07-17T00:25:06.102Z,91.30
2023-07-17T00:27:36.279Z,91.30
2023-07-17T00:30:05.180Z,91.30
2023-07-17T00:32:33.469Z,91.30
2023-07-17T00:35:01.732Z,91.30
2023-07-17T00:37:31.841Z,91.70
2023-07-17T00:40:00.054Z,91.30
2023-07-17T00:42:28.332Z,91.30
2023-07-17T00:44:57.808Z,91.30
2023-07-17T00:47:26.242Z,91.30
2023-07-17T00:49:55.310Z,91.30
2023-07-17T00:52:24.408Z,91.30
2023-07-17T00:54:53.667Z,91.30
2023-07-17T00:57:24.668Z,91.30
2023-07-17T00:59:53.475Z,91.30
2023-07-17T01:02:25.102Z,91.30
2023-07-17T01:04:54.044Z,91.30
2023-07-17T01:07:22.252Z,91.20
2023-07-17T01:09:50.521Z,91.30
2023-07-17T01:12:18.815Z,91.30
2023-07-17T01:14:48.348Z,91.30
2023-07-17T01:17:17.191Z,91.20
2023-07-17T01:19:47.536Z,91.20
2023-07-17T01:22:22.812Z,91.20
2023-07-17T01:24:53.507Z,91.20
2023-07-17T01:27:21.823Z,91.20
2023-07-17T01:29:50.162Z,91.20
2023-07-17T01:32:21.201Z,91.20
2023-07-17T01:34:49.537Z,91.20
2023-07-17T01:37:17.808Z,91.20
2023-07-17T01:39:45.997Z,91.20
2023-07-17T01:42:15.538Z,91.20
2023-07-17T01:44:43.698Z,91.10
2023-07-17T01:47:11.836Z,91.20
2023-07-17T01:49:40.046Z,91.10
2023-07-17T01:52:10.076Z,91.10
2023-07-17T01:54:39.334Z,91.10
2023-07-17T01:57:07.968Z,91.10
2023-07-17T01:59:38.004Z,91.10
2023-07-17T02:02:06.668Z,91.10
2023-07-17T02:04:34.943Z,91.10
2023-07-17T02:07:03.277Z,91.50
2023-07-17T02:09:31.534Z,91.10
2023-07-17T02:11:59.742Z,91.20
2023-07-17T02:14:27.927Z,91.20
2023-07-17T02:16:59.179Z,91.10
2023-07-17T02:19:28.673Z,91.10
2023-07-17T02:21:56.817Z,91.20
2023-07-17T02:24:24.986Z,91.20
2023-07-17T02:26:54.852Z,91.20
2023-07-17T02:29:23.074Z,91.20
2023-07-17T02:31:51.312Z,91.20
2023-07-17T02:34:21.658Z,91.20
2023-07-17T02:36:49.841Z,91.20
2023-07-17T02:39:17.980Z,91.20
2023-07-17T02:41:46.978Z,91.20
2023-07-17T02:44:15.840Z,91.20
2023-07-17T02:46:43.974Z,91.20
2023-07-17T02:49:14.972Z,91.20
2023-07-17T02:51:44.472Z,91.20
2023-07-17T02:54:12.822Z,91.20
2023-07-17T03:01:05.821Z,91.20
2023-07-17T03:03:33.983Z,91.20
2023-07-17T03:06:02.072Z,91.20
2023-07-17T03:08:31.551Z,91.20
2023-07-17T03:11:03.232Z,91.20
2023-07-17T03:13:31.454Z,91.20
2023-07-17T03:16:00.486Z,91.20
2023-07-17T03:18:29.340Z,91.30
2023-07-17T03:20:57.608Z,91.30
2023-07-17T03:23:25.821Z,91.30
2023-07-17T03:25:57.550Z,91.40
2023-07-17T03:28:25.722Z,91.50
2023-07-17T03:30:57.231Z,91.60
2023-07-17T03:33:26.096Z,91.70
2023-07-17T03:35:54.425Z,91.80
2023-07-17T03:38:22.621Z,91.80
2023-07-17T03:40:50.761Z,91.80
2023-07-17T03:43:20.291Z,91.80
2023-07-17T03:45:52.435Z,92.10
2023-07-17T03:48:23.605Z,91.80
2023-07-17T03:50:52.292Z,91.80
2023-07-17T03:53:20.841Z,91.70
2023-07-17T03:55:49.040Z,91.70
2023-07-17T03:58:17.301Z,91.70
2023-07-17T04:00:46.888Z,91.80
2023-07-17T04:03:15.373Z,91.80
2023-07-17T04:05:46.471Z,91.80
2023-07-17T04:08:14.662Z,92.20
2023-07-17T04:10:43.022Z,91.80
2023-07-17T04:13:11.269Z,91.80
2023-07-17T04:15:39.530Z,91.80
2023-07-17T04:18:13.490Z,91.80
2023-07-17T04:20:42.151Z,92.20
2023-07-17T04:23:11.316Z,91.70
2023-07-17T04:25:44.067Z,91.70
2023-07-17T04:28:13.200Z,91.70
2023-07-17T04:30:42.539Z,91.70
2023-07-17T04:33:14.503Z,91.60
2023-07-17T04:35:44.112Z,91.60
2023-07-17T04:38:12.553Z,91.60
2023-07-17T04:40:41.594Z,91.60
2023-07-17T04:43:10.724Z,91.60
2023-07-17T04:45:43.274Z,91.50
2023-07-17T04:48:16.809Z,91.60
2023-07-17T04:50:48.284Z,91.50
2023-07-17T04:53:16.600Z,91.50
2023-07-17T04:55:44.864Z,91.40
2023-07-17T04:58:13.081Z,91.40
2023-07-17T05:00:44.070Z,91.40
2023-07-17T05:03:12.358Z,91.30
2023-07-17T05:05:42.055Z,91.30
2023-07-17T05:08:10.931Z,91.30
2023-07-17T05:10:39.210Z,91.20
2023-07-17T05:13:07.664Z,91.10
2023-07-17T05:15:35.985Z,91.10
2023-07-17T05:18:05.812Z,91.10
2023-07-17T05:20:34.051Z,91.00
2023-07-17T05:23:03.659Z,91.20
2023-07-17T05:25:32.169Z,90.90
2023-07-17T05:28:00.380Z,90.90
2023-07-17T05:30:28.734Z,90.80
2023-07-17T05:32:57.052Z,90.80
2023-07-17T05:35:25.414Z,90.70
2023-07-17T05:37:55.340Z,90.70
2023-07-17T05:40:25.575Z,90.40
2023-07-17T05:42:53.773Z,89.60
2023-07-17T05:45:22.359Z,88.40
2023-07-17T05:47:51.316Z,87.70
2023-07-17T05:50:20.309Z,87.30
2023-07-17T05:52:48.814Z,87.00
2023-07-17T05:55:17.435Z,86.90
2023-07-17T05:57:46.959Z,86.90
2023-07-17T06:00:15.895Z,87.20
2023-07-17T06:02:46.938Z,87.50
2023-07-17T06:05:15.942Z,89.10
2023-07-17T06:07:44.137Z,88.70
2023-07-17T06:10:13.733Z,89.10
2023-07-17T06:12:41.981Z,89.10
2023-07-17T06:15:14.450Z,89.20
2023-07-17T06:17:42.653Z,89.30
2023-07-17T06:20:11.433Z,89.40
2023-07-17T06:22:39.774Z,89.60
2023-07-17T06:25:08.474Z,89.40
2023-07-17T06:27:36.829Z,89.40
2023-07-17T06:30:05.769Z,89.20
2023-07-17T06:32:35.511Z,89.20
2023-07-17T06:35:06.504Z,89.30
2023-07-17T06:37:34.849Z,89.20
2023-07-17T06:40:04.493Z,89.20
2023-07-17T06:42:34.241Z,89.20
2023-07-17T06:45:02.638Z,89.20
2023-07-17T06:47:37.203Z,89.10
2023-07-17T06:50:08.979Z,89.10
2023-07-17T06:52:39.167Z,89.10
2023-07-17T06:55:09.700Z,89.20
2023-07-17T06:57:37.853Z,89.10
2023-07-17T07:00:07.658Z,89.20
2023-07-17T07:02:37.547Z,89.10
2023-07-17T07:05:10.087Z,89.00
2023-07-17T07:07:38.355Z,88.90
2023-07-17T07:10:07.882Z,88.80
2023-07-17T07:12:36.074Z,88.70
2023-07-17T07:15:04.445Z,88.40
2023-07-17T07:17:32.905Z,88.30
2023-07-17T07:20:01.072Z,88.10
2023-07-17T07:22:30.651Z,87.80
2023-07-17T07:24:59.006Z,87.80
2023-07-17T07:27:28.019Z,87.60
2023-07-17T07:29:59.413Z,87.20
2023-07-17T07:32:27.659Z,87.10
2023-07-17T07:34:55.831Z,87.10
2023-07-17T07:37:24.030Z,87.00
2023-07-17T07:39:53.538Z,86.80
2023-07-17T07:42:21.718Z,86.50
2023-07-17T07:44:49.917Z,86.50
2023-07-17T07:47:18.218Z,86.30
2023-07-17T07:49:48.537Z,86.40
2023-07-17T07:52:17.083Z,86.10
2023-07-17T07:54:46.088Z,86.00
2023-07-17T07:57:15.705Z,85.90
2023-07-17T07:59:43.876Z,85.60
2023-07-17T08:02:13.193Z,85.50
2023-07-17T08:04:41.541Z,85.40
2023-07-17T08:07:09.775Z,85.40
2023-07-17T08:09:38.083Z,85.30
2023-07-17T08:12:07.003Z,85.00
2023-07-17T08:14:36.534Z,85.10
2023-07-17T08:17:04.835Z,85.00
2023-07-17T08:19:32.997Z,85.10
2023-07-17T08:22:01.164Z,84.80
2023-07-17T08:24:29.340Z,84.70
2023-07-17T08:26:57.522Z,84.50
2023-07-17T08:29:26.075Z,84.50
2023-07-17T08:31:55.886Z,84.10
2023-07-17T08:34:25.201Z,83.90
2023-07-17T08:36:53.383Z,83.90
2023-07-17T08:39:21.492Z,83.50
2023-07-17T08:41:51.693Z,83.40
2023-07-17T08:44:20.314Z,83.00
2023-07-17T08:46:49.375Z,82.90
2023-07-17T08:49:21.286Z,82.90
2023-07-17T08:51:51.156Z,82.50
2023-07-17T08:54:28.680Z,82.20
2023-07-17T08:57:03.398Z,82.20
2023-07-17T08:59:32.171Z,82.60
2023-07-17T09:02:01.528Z,82.10
2023-07-17T09:04:32.862Z,82.10
2023-07-17T09:07:01.086Z,82.00
2023-07-17T09:09:29.291Z,82.10
2023-07-17T09:12:09.297Z,82.10
2023-07-17T09:14:38.105Z,82.10
2023-07-17T09:17:08.760Z,82.20
2023-07-17T09:19:38.996Z,82.00
2023-07-17T09:22:08.524Z,81.90
2023-07-17T09:24:38.073Z,81.70
2023-07-17T09:27:07.751Z,81.90
2023-07-17T09:29:36.019Z,81.60
2023-07-17T09:32:19.754Z,82.30
2023-07-17T09:34:53.785Z,81.60
2023-07-17T09:37:22.059Z,81.70
2023-07-17T09:39:53.961Z,81.60
2023-07-17T09:42:25.315Z,81.70
2023-07-17T09:44:54.741Z,81.50
2023-07-17T09:47:23.320Z,81.20
2023-07-17T09:49:53.141Z,80.60
2023-07-17T09:52:21.295Z,80.80
2023-07-17T09:54:52.330Z,81.10
2023-07-17T09:57:28.972Z,81.40
2023-07-17T10:00:04.202Z,81.80
2023-07-17T10:02:38.776Z,81.40
2023-07-17T10:05:09.556Z,82.20
2023-07-17T10:07:40.961Z,81.40
2023-07-17T10:10:10.359Z,81.50
2023-07-17T10:12:40.558Z,81.60
2023-07-17T10:15:10.763Z,81.90
2023-07-17T10:17:38.976Z,81.60
2023-07-17T10:20:12.048Z,81.10
2023-07-17T10:22:45.222Z,81.00
2023-07-17T10:25:25.545Z,80.80
2023-07-17T10:27:58.041Z,80.90
2023-07-17T10:30:28.799Z,81.10
2023-07-17T10:33:12.673Z,81.80
2023-07-17T10:35:50.068Z,81.80
2023-07-17T10:38:19.537Z,81.00
2023-07-17T10:40:47.939Z,80.90
2023-07-17T10:43:18.400Z,80.50
2023-07-17T10:45:50.676Z,80.50
2023-07-17T10:48:19.741Z,80.50
2023-07-17T10:50:53.514Z,80.60
2023-07-17T10:53:22.817Z,80.50
2023-07-17T10:55:51.195Z,80.60
2023-07-17T10:58:20.867Z,80.70
2023-07-17T11:00:49.686Z,80.80
2023-07-17T11:03:18.947Z,80.80
2023-07-17T11:05:47.641Z,80.80
2023-07-17T11:08:17.391Z,80.90
2023-07-17T11:10:47.089Z,80.80
2023-07-17T11:13:15.353Z,80.60
2023-07-17T11:15:45.174Z,80.10
2023-07-17T11:18:13.639Z,79.80
2023-07-17T11:20:41.982Z,79.70
2023-07-17T11:23:13.570Z,80.50
2023-07-17T11:25:43.991Z,79.50
2023-07-17T11:28:12.446Z,79.40
2023-07-17T11:30:41.133Z,79.60
2023-07-17T11:33:10.384Z,79.70
2023-07-17T11:35:47.055Z,79.60
2023-07-17T11:38:16.577Z,79.90
2023-07-17T11:40:57.087Z,80.10
2023-07-17T11:43:27.832Z,80.20
2023-07-17T11:45:58.322Z,80.30
2023-07-17T11:48:27.244Z,80.60
2023-07-17T11:50:57.633Z,80.80
2023-07-17T11:53:27.643Z,80.30
2023-07-17T11:55:57.393Z,80.20
2023-07-17T11:58:27.889Z,80.60
2023-07-17T12:00:57.081Z,80.80
2023-07-17T12:03:25.930Z,80.50
2023-07-17T12:05:54.578Z,80.40
2023-07-17T12:08:22.698Z,80.60
2023-07-17T12:10:51.512Z,80.50
2023-07-17T12:13:21.022Z,80.30
2023-07-17T12:15:49.278Z,80.50
2023-07-17T12:18:17.505Z,80.80
2023-07-17T12:20:45.662Z,80.80
2023-07-17T12:23:15.683Z,80.40
2023-07-17T12:25:44.140Z,80.40
2023-07-17T12:28:12.295Z,80.30
2023-07-17T12:30:42.577Z,80.30
2023-07-17T12:33:10.747Z,80.20
2023-07-17T12:35:38.992Z,80.20
2023-07-17T12:38:07.116Z,80.40
2023-07-17T12:40:35.344Z,80.40
2023-07-17T12:43:03.929Z,80.40
2023-07-17T12:45:32.755Z,80.40
2023-07-17T12:48:02.452Z,80.50
2023-07-17T12:50:30.960Z,80.70
2023-07-17T12:52:59.110Z,81.00
2023-07-17T12:55:27.300Z,81.30
2023-07-17T12:57:55.530Z,81.40
2023-07-17T13:00:23.771Z,81.20
2023-07-17T13:02:52.278Z,81.50
2023-07-17T13:05:22.119Z,81.40
2023-07-17T13:07:51.555Z,81.30
2023-07-17T13:10:20.306Z,81.40
2023-07-17T13:12:49.868Z,81.40
2023-07-17T13:15:18.968Z,81.50
2023-07-17T13:17:47.318Z,81.50
2023-07-17T13:20:16.131Z,81.40
2023-07-17T13:22:45.690Z,81.20
2023-07-17T13:25:13.951Z,81.20
2023-07-17T13:27:42.071Z,81.40
2023-07-17T13:30:10.883Z,81.10
2023-07-17T13:32:40.649Z,81.10
2023-07-17T13:35:09.631Z,81.20
2023-07-17T13:37:37.674Z,81.20
2023-07-17T13:40:08.350Z,81.70
2023-07-17T13:42:36.418Z,81.50
2023-07-17T13:45:05.144Z,82.00
2023-07-17T13:47:33.481Z,82.00
2023-07-17T13:50:02.540Z,81.90
2023-07-17T13:52:30.770Z,81.90
2023-07-17T13:54:58.995Z,82.10
2023-07-17T13:57:28.614Z,81.90
2023-07-17T13:59:57.437Z,81.90
2023-07-17T14:02:25.752Z,82.10
2023-07-17T14:04:54.362Z,82.00
2023-07-17T14:07:22.618Z,81.90
2023-07-17T14:09:50.851Z,82.00
2023-07-17T14:12:18.996Z,82.70
2023-07-17T14:14:48.593Z,81.80
2023-07-17T14:17:16.762Z,81.70
2023-07-17T14:19:44.979Z,81.80
2023-07-17T14:22:13.055Z,81.80
2023-07-17T14:24:42.826Z,82.00
2023-07-17T14:27:12.690Z,82.20
2023-07-17T14:29:40.806Z,82.40
2023-07-17T14:32:11.045Z,82.70
2023-07-17T14:34:41.497Z,82.80
2023-07-17T14:37:09.865Z,83.10
2023-07-17T14:39:38.020Z,83.30
2023-07-17T14:42:06.881Z,83.30
2023-07-17T14:44:35.119Z,83.30
2023-07-17T14:47:03.337Z,83.00
2023-07-17T14:49:32.856Z,83.00
2023-07-17T14:52:00.963Z,83.00
2023-07-17T14:54:29.131Z,83.00
2023-07-17T14:56:57.496Z,82.90
2023-07-17T14:59:25.741Z,82.80
2023-07-17T15:01:53.998Z,82.90
2023-07-17T15:04:22.316Z,83.00
2023-07-17T15:06:51.917Z,83.10
2023-07-17T15:09:20.104Z,83.20
2023-07-17T15:11:48.414Z,83.40
2023-07-17T15:14:26.156Z,83.40
2023-07-17T15:16:55.844Z,83.20
2023-07-17T15:19:24.102Z,83.10
2023-07-17T15:21:53.691Z,82.90
2023-07-17T15:24:21.875Z,83.00
2023-07-17T15:26:50.140Z,82.90
2023-07-17T15:29:18.281Z,82.80
2023-07-17T15:31:46.518Z,83.10
2023-07-17T15:34:15.331Z,83.10
2023-07-17T15:36:43.570Z,83.10
2023-07-17T15:39:13.091Z,83.20
2023-07-17T15:41:41.203Z,83.20
2023-07-17T15:44:09.469Z,82.70
2023-07-17T15:46:37.657Z,82.60
2023-07-17T15:49:06.008Z,82.90
2023-07-17T15:51:34.266Z,83.10
2023-07-17T15:54:03.107Z,83.10
2023-07-17T15:56:32.695Z,83.20
2023-07-17T15:59:00.909Z,83.40
2023-07-17T16:01:29.176Z,83.20
2023-07-17T16:03:57.338Z,83.40
2023-07-17T16:06:25.623Z,83.40
2023-07-17T16:08:54.002Z,83.50
2023-07-17T16:11:22.678Z,83.40
2023-07-17T16:13:52.347Z,83.40
2023-07-17T16:16:21.883Z,83.60
2023-07-17T16:18:50.287Z,83.60
2023-07-17T16:21:18.755Z,83.20
2023-07-17T16:23:48.094Z,83.00
2023-07-17T16:26:17.196Z,82.50
2023-07-17T16:28:45.643Z,82.80
2023-07-17T16:31:15.178Z,82.80
2023-07-17T16:33:43.354Z,82.90
2023-07-17T16:36:11.679Z,82.90
2023-07-17T16:38:39.947Z,82.80
2023-07-17T16:41:10.304Z,83.00
2023-07-17T16:43:38.572Z,82.60
2023-07-17T16:46:06.748Z,82.80
2023-07-17T16:48:36.264Z,83.10
2023-07-17T16:51:04.639Z,83.00
2023-07-17T16:53:33.382Z,83.00
2023-07-17T16:56:01.580Z,83.30
2023-07-17T16:58:29.819Z,83.00
2023-07-17T17:00:57.944Z,83.50
2023-07-17T17:03:26.520Z,83.60
2023-07-17T17:05:56.167Z,83.80
2023-07-17T17:08:24.427Z,84.00
2023-07-17T17:10:52.974Z,83.90
2023-07-17T17:13:21.454Z,84.00
2023-07-17T17:15:50.819Z,83.80
2023-07-17T17:18:19.103Z,83.70
2023-07-17T17:20:47.284Z,83.90
2023-07-17T17:23:16.864Z,83.70
2023-07-17T17:25:45.054Z,83.70
2023-07-17T17:28:13.216Z,83.60
2023-07-17T17:30:41.712Z,83.70
2023-07-17T17:33:10.643Z,84.00
2023-07-17T17:35:38.786Z,84.10
2023-07-17T17:38:10.000Z,84.30
2023-07-17T17:40:40.797Z,84.30
2023-07-17T17:43:08.999Z,84.20
2023-07-17T17:45:37.301Z,84.10
2023-07-17T17:48:05.747Z,83.90
2023-07-17T17:50:34.014Z,83.90
2023-07-17T17:53:04.572Z,84.30
2023-07-17T17:55:32.732Z,84.60
2023-07-17T17:58:02.335Z,84.40
2023-07-17T18:00:30.519Z,84.60
2023-07-17T18:02:58.922Z,84.50
2023-07-17T18:05:28.243Z,84.50
2023-07-17T18:07:56.468Z,85.40
2023-07-17T18:10:24.641Z,84.50
2023-07-17T18:12:53.244Z,84.40
2023-07-17T18:15:22.799Z,84.40
2023-07-17T18:17:50.966Z,84.30
2023-07-17T18:20:19.245Z,84.30
2023-07-17T18:22:47.388Z,84.40
2023-07-17T18:25:15.587Z,84.50
2023-07-17T18:27:43.669Z,84.50
2023-07-17T18:30:12.682Z,84.50
2023-07-17T18:32:42.298Z,84.60
2023-07-17T18:35:11.044Z,84.80
2023-07-17T18:37:39.193Z,84.70
2023-07-17T18:40:10.634Z,85.00
2023-07-17T18:42:38.956Z,84.80
2023-07-17T18:45:10.139Z,85.00
2023-07-17T18:47:38.582Z,84.90
2023-07-17T18:50:08.989Z,85.00
2023-07-17T18:52:37.288Z,85.00
2023-07-17T18:55:05.933Z,85.00
2023-07-17T18:57:34.112Z,85.00
2023-07-17T19:00:05.006Z,85.10
2023-07-17T19:02:33.199Z,85.10
2023-07-17T19:05:01.456Z,85.30
2023-07-17T19:07:31.139Z,85.30
2023-07-17T19:09:59.302Z,85.40
2023-07-17T19:12:27.602Z,85.30
2023-07-17T19:14:55.837Z,85.40
2023-07-17T19:17:25.090Z,85.50
2023-07-17T19:19:53.322Z,85.60
2023-07-17T19:22:21.498Z,85.50
2023-07-17T19:24:51.133Z,85.50
2023-07-17T19:27:19.229Z,85.60
2023-07-17T19:29:47.367Z,85.80
2023-07-17T19:32:17.932Z,85.90
2023-07-17T19:34:47.303Z,85.90
2023-07-17T19:37:15.914Z,85.90
2023-07-17T19:39:44.238Z,86.10
2023-07-17T19:42:14.858Z,86.00
2023-07-17T19:44:43.073Z,86.20
2023-07-17T19:47:11.213Z,86.30
2023-07-17T19:49:39.392Z,86.50
2023-07-17T19:52:08.075Z,86.60
2023-07-17T19:54:36.382Z,86.50
2023-07-17T19:57:04.698Z,86.70
2023-07-17T19:59:34.279Z,86.80
2023-07-17T20:02:02.407Z,87.10
2023-07-17T20:04:31.401Z,87.10
2023-07-17T20:06:59.695Z,87.30
2023-07-17T20:09:32.995Z,87.40
2023-07-17T20:12:03.156Z,87.50
2023-07-17T20:14:31.508Z,87.50
2023-07-17T20:17:01.037Z,87.50
2023-07-17T20:19:29.122Z,87.50
2023-07-17T20:21:58.348Z,87.50
2023-07-17T20:24:26.775Z,87.60
2023-07-17T20:26:54.929Z,87.60
2023-07-17T20:29:25.070Z,88.40
2023-07-17T20:31:53.437Z,87.60
2023-07-17T20:34:23.073Z,87.70
2023-07-17T20:36:51.212Z,87.70
2023-07-17T20:39:19.360Z,87.70
2023-07-17T20:41:47.480Z,87.70
2023-07-17T20:44:15.641Z,87.70
2023-07-17T20:46:44.176Z,87.80
2023-07-17T20:49:12.380Z,87.90
2023-07-17T20:51:41.864Z,87.90
2023-07-17T20:54:10.356Z,87.90
2023-07-17T20:56:38.490Z,87.90
2023-07-17T20:59:07.055Z,87.90
2023-07-17T21:01:35.258Z,88.00
2023-07-17T21:04:05.538Z,88.00
2023-07-17T21:06:33.790Z,88.00
2023-07-17T21:09:03.244Z,88.00
2023-07-17T21:11:31.444Z,88.20
2023-07-17T21:14:00.311Z,88.10
2023-07-17T21:16:28.517Z,88.20
2023-07-17T21:18:56.635Z,88.10
2023-07-17T21:21:24.794Z,88.10
2023-07-17T21:23:52.982Z,88.10
2023-07-17T21:26:22.481Z,88.10
2023-07-17T21:28:58.094Z,88.10
2023-07-17T21:31:26.504Z,88.20
2023-07-17T21:33:54.844Z,88.30
2023-07-17T21:36:23.063Z,88.20
2023-07-17T21:38:51.423Z,88.20
2023-07-17T21:41:19.715Z,88.30
2023-07-17T21:43:50.147Z,88.30
2023-07-17T21:46:18.463Z,88.20
2023-07-17T21:48:46.565Z,88.40
2023-07-17T21:51:17.157Z,88.30
2023-07-17T21:53:45.657Z,88.20
2023-07-17T21:56:14.267Z,88.30
2023-07-17T21:58:42.396Z,88.30
2023-07-17T22:01:13.471Z,88.40
2023-07-17T22:03:42.302Z,88.40
2023-07-17T22:06:10.676Z,88.40
2023-07-17T22:08:38.817Z,88.40
2023-07-17T22:11:06.907Z,88.40
2023-07-17T22:13:36.082Z,88.40
2023-07-17T22:16:04.987Z,88.40
2023-07-17T22:18:36.813Z,88.40
2023-07-17T22:21:05.239Z,88.40
2023-07-17T22:23:33.443Z,88.40
2023-07-17T22:26:01.542Z,88.40
2023-07-17T22:28:30.470Z,88.40
2023-07-17T22:30:58.601Z,88.30
2023-07-17T22:33:26.753Z,88.30
2023-07-17T22:35:56.432Z,88.40
2023-07-17T22:38:24.580Z,88.30
2023-07-17T22:40:52.801Z,88.30
2023-07-17T22:43:21.039Z,88.20
2023-07-17T22:45:52.156Z,88.30
2023-07-17T22:48:21.286Z,88.20
2023-07-17T22:50:49.877Z,88.20
2023-07-17T22:53:19.401Z,88.30
2023-07-17T22:55:47.600Z,88.20
2023-07-17T22:58:15.773Z,88.20
2023-07-17T23:00:44.179Z,88.20
2023-07-17T23:03:12.601Z,88.20
2023-07-17T23:05:40.736Z,88.10
2023-07-17T23:08:09.305Z,88.20
2023-07-17T23:10:38.843Z,88.10
2023-07-17T23:13:08.701Z,88.00
2023-07-17T23:15:38.687Z,88.10
2023-07-17T23:18:07.002Z,88.00
2023-07-17T23:20:35.536Z,88.00
2023-07-17T23:23:05.919Z,88.00
2023-07-17T23:25:34.517Z,88.00
2023-07-17T23:28:04.068Z,87.90
2023-07-17T23:30:32.288Z,87.80
2023-07-17T23:33:00.454Z,87.90
2023-07-17T23:35:28.596Z,87.90
2023-07-17T23:37:56.799Z,87.90
2023-07-17T23:40:25.472Z,87.90
2023-07-17T23:42:59.048Z,87.80
2023-07-17T23:45:28.739Z,87.80
2023-07-17T23:47:57.106Z,87.90
2023-07-17T23:50:25.689Z,87.80
2023-07-17T23:52:54.366Z,87.80
2023-07-17T23:55:22.619Z,88.60
2023-07-17T23:57:51.105Z,87.80
